Time;durP1;ratioP1;P1;durP2;ratioP2;P2;SDS_P1;SDS_P2;PMS_P1;PMS_P2;Temp;Humidity;BMP_temperature;BMP_pressure;BME280_temperature;BME280_humidity;BME280_pressure;Samples;Min_cycle;Max_cycle;Signal;HPM_P1;HPM_P2
2023/05/10 00:01:17;;;;;;;1.50;0.50;;;;;;;11.76;100.00;93379.91;4802718;29;20050;-60
2023/05/10 00:03:44;;;;;;;1.55;0.50;;;;;;;11.93;100.00;93382.59;4802131;29;20133;-63
2023/05/10 00:06:11;;;;;;;1.35;0.50;;;;;;;11.79;100.00;93379.03;4802421;29;20039;-60
2023/05/10 00:08:37;;;;;;;1.63;0.80;;;;;;;12.06;100.00;93374.38;4801820;29;20062;-61
2023/05/10 00:11:04;;;;;;;2.20;0.43;;;;;;;11.99;100.00;93378.09;4802344;29;20050;-65
2023/05/10 00:13:31;;;;;;;1.90;0.50;;;;;;;12.01;100.00;93380.41;4802688;29;20495;-60
2023/05/10 00:15:58;;;;;;;2.13;0.77;;;;;;;12.14;100.00;93381.97;4801596;29;20043;-60
2023/05/10 00:18:25;;;;;;;18.15;10.40;;;;;;;12.10;100.00;93386.81;4802168;29;20043;-61
2023/05/10 00:20:52;;;;;;;4.57;2.33;;;;;;;12.21;100.00;93382.97;4785512;29;20547;-62
2023/05/10 00:23:18;;;;;;;1.30;0.43;;;;;;;11.90;100.00;93380.75;4799886;29;20059;-61
2023/05/10 00:25:45;;;;;;;1.48;0.68;;;;;;;11.91;100.00;93376.78;4800927;29;20078;-63
2023/05/10 00:28:12;;;;;;;1.65;0.60;;;;;;;12.10;100.00;93377.81;4802247;29;20051;-60
2023/05/10 00:30:39;;;;;;;2.33;0.70;;;;;;;11.92;100.00;93378.31;4801251;29;20109;-61
2023/05/10 00:33:05;;;;;;;1.50;0.60;;;;;;;11.79;100.00;93379.03;4802321;29;20057;-60
2023/05/10 00:35:32;;;;;;;4.00;0.67;;;;;;;11.93;100.00;93386.16;4802168;29;20043;-62
2023/05/10 00:37:59;;;;;;;2.15;0.60;;;;;;;11.97;100.00;93377.78;4800944;29;20054;-60
2023/05/10 00:40:26;;;;;;;1.40;0.65;;;;;;;11.87;100.00;93379.63;4801248;29;20047;-60
2023/05/10 00:42:53;;;;;;;1.50;0.57;;;;;;;11.98;100.00;93376.56;4789993;29;20055;-60
2023/05/10 00:45:19;;;;;;;1.83;0.57;;;;;;;11.71;100.00;93393.41;4801670;29;20055;-61
2023/05/10 00:47:46;;;;;;;2.00;0.80;;;;;;;11.72;100.00;93386.72;4784423;29;20450;-61
2023/05/10 00:50:14;;;;;;;2.38;0.90;;;;;;;11.68;100.00;93391.53;4801173;29;20046;-66
2023/05/10 00:52:42;;;;;;;1.70;0.70;;;;;;;11.76;100.00;93392.88;4788901;29;20054;-60
2023/05/10 00:55:11;;;;;;;1.73;0.70;;;;;;;11.78;100.00;93390.47;4801610;29;20567;-63
2023/05/10 00:57:38;;;;;;;1.80;0.70;;;;;;;11.50;100.00;93392.03;4800751;29;20118;-67
2023/05/10 01:00:05;;;;;;;1.80;0.70;;;;;;;11.58;100.00;93401.63;4801417;29;20498;-60
2023/05/10 01:02:34;;;;;;;2.95;0.80;;;;;;;11.58;100.00;93398.88;4801547;29;20106;-60
2023/05/10 01:05:03;;;;;;;3.05;0.50;;;;;;;11.38;100.00;93397.03;4800233;29;21114;-60
2023/05/10 01:07:30;;;;;;;1.60;0.70;;;;;;;11.22;100.00;93410.03;4801458;29;20043;-60
2023/05/10 01:09:57;;;;;;;1.50;0.50;;;;;;;11.45;100.00;93409.03;4784682;29;20047;-60
2023/05/10 01:12:25;;;;;;;1.50;0.60;;;;;;;11.62;100.00;93409.78;4801351;29;20051;-63
2023/05/10 01:14:52;;;;;;;1.50;0.70;;;;;;;11.63;100.00;93411.31;4800664;29;20055;-66
2023/05/10 01:17:22;;;;;;;1.60;0.70;;;;;;;11.23;100.00;93414.31;4785249;29;20689;-64
2023/05/10 01:19:49;;;;;;;1.65;0.57;;;;;;;11.49;100.00;93421.50;4800423;29;20394;-60
2023/05/10 01:22:43;;;;;;;1.90;0.75;;;;;;;11.32;100.00;93419.97;4799359;29;20045;-61
2023/05/10 01:25:35;;;;;;;1.50;0.40;;;;;;;11.24;100.00;93433.13;4796416;29;20050;-61
2023/05/10 01:28:23;;;;;;;2.35;0.70;;;;;;;11.29;100.00;93429.88;4800214;29;20193;-61
2023/05/10 01:31:18;;;;;;;2.20;0.60;;;;;;;11.17;100.00;93438.81;4787689;29;20054;-60
2023/05/10 01:34:08;;;;;;;1.40;0.50;;;;;;;11.00;100.00;93438.81;4800249;29;20055;-64
2023/05/10 01:36:50;;;;;;;1.83;0.50;;;;;;;11.28;100.00;93430.28;4780759;29;20050;-58
2023/05/10 01:39:25;;;;;;;1.50;0.67;;;;;;;11.17;100.00;93431.34;4801170;29;20069;-61
2023/05/10 01:42:09;;;;;;;2.35;0.70;;;;;;;11.39;100.00;93431.56;4800594;29;20055;-60
2023/05/10 01:44:47;;;;;;;1.50;0.50;;;;;;;11.40;100.00;93438.59;4800657;29;20054;-60
2023/05/10 01:47:20;;;;;;;1.40;0.50;;;;;;;11.23;100.00;93436.28;4800930;29;20072;-60
2023/05/10 01:49:53;;;;;;;1.85;0.70;;;;;;;11.29;100.00;93448.31;4800438;29;20058;-60
2023/05/10 01:52:25;;;;;;;1.50;0.53;;;;;;;11.46;100.00;93449.81;4800897;29;20047;-60
2023/05/10 01:55:04;;;;;;;1.50;0.60;;;;;;;11.51;100.00;93448.53;4800320;29;20112;-62
2023/05/10 01:57:35;;;;;;;1.40;0.50;;;;;;;11.38;100.00;93449.22;4801152;29;20043;-61
2023/05/10 02:00:04;;;;;;;1.60;0.60;;;;;;;11.36;100.00;93448.91;4800659;29;20648;-61
2023/05/10 02:02:38;;;;;;;1.80;0.60;;;;;;;11.38;100.00;93454.72;4804201;29;20069;-64
2023/05/10 02:05:07;;;;;;;1.50;0.60;;;;;;;11.45;100.00;93451.03;4803194;29;21316;-64
2023/05/10 02:07:37;;;;;;;1.40;0.60;;;;;;;11.48;100.00;93455.66;4804201;29;20409;-61
2023/05/10 02:10:08;;;;;;;3.15;0.80;;;;;;;11.47;100.00;93447.84;4803480;29;20227;-62
2023/05/10 02:12:36;;;;;;;1.50;0.60;;;;;;;11.56;100.00;93446.03;4803752;29;20099;-59
2023/05/10 02:15:07;;;;;;;1.80;0.60;;;;;;;11.66;100.00;93437.94;4804143;29;20046;-61
2023/05/10 02:17:36;;;;;;;1.53;0.50;;;;;;;11.67;100.00;93450.47;4804358;29;20515;-60
2023/05/10 02:20:06;;;;;;;1.70;0.65;;;;;;;11.57;100.00;93444.06;4802966;29;20375;-65
2023/05/10 02:22:34;;;;;;;2.20;0.80;;;;;;;11.56;100.00;93459.00;4786757;29;20053;-63
2023/05/10 02:25:03;;;;;;;1.75;0.70;;;;;;;11.57;100.00;93458.56;4803018;29;21808;-61
2023/05/10 02:27:30;;;;;;;1.70;0.70;;;;;;;11.57;100.00;93457.81;4804174;29;20053;-60
2023/05/10 02:29:58;;;;;;;1.77;0.77;;;;;;;11.62;100.00;93453.75;4803147;29;20055;-60
2023/05/10 02:32:27;;;;;;;1.73;0.68;;;;;;;11.60;100.00;93454.19;4804064;29;20050;-61
2023/05/10 02:34:55;;;;;;;2.17;1.08;;;;;;;11.62;100.00;93457.25;4803613;29;20102;-60
2023/05/10 02:37:22;;;;;;;2.25;0.90;;;;;;;11.67;100.00;93459.50;4803945;29;20490;-61
2023/05/10 02:39:50;;;;;;;2.30;0.90;;;;;;;11.67;100.00;93458.69;4803216;29;20050;-61
2023/05/10 02:42:22;;;;;;;1.70;0.60;;;;;;;11.66;100.00;93454.44;4804034;29;20063;-61
2023/05/10 02:44:52;;;;;;;2.70;0.50;;;;;;;11.70;100.00;93463.34;4803125;29;20391;-61
2023/05/10 02:47:19;;;;;;;2.00;0.70;;;;;;;11.72;100.00;93463.69;4804119;29;20046;-64
2023/05/10 02:49:46;;;;;;;2.58;0.77;;;;;;;11.70;100.00;93464.09;4803038;29;20055;-61
2023/05/10 02:52:16;;;;;;;29.65;15.77;;;;;;;11.56;100.00;93472.75;4803784;29;20046;-63
2023/05/10 02:54:50;;;;;;;5.73;2.90;;;;;;;11.64;100.00;93467.84;4803542;29;20109;-66
2023/05/10 02:57:24;;;;;;;3.22;1.10;;;;;;;11.53;100.00;93468.09;4803841;29;20045;-60
2023/05/10 02:59:51;;;;;;;1.70;0.75;;;;;;;11.39;100.00;93467.28;4802569;29;20181;-61
2023/05/10 03:02:18;;;;;;;1.83;0.80;;;;;;;11.47;100.00;93467.06;4787747;29;20142;-64
2023/05/10 03:04:44;;;;;;;2.72;0.90;;;;;;;11.52;100.00;93463.81;4786378;29;20097;-66
2023/05/10 03:07:11;;;;;;;1.70;0.83;;;;;;;11.52;100.00;93463.81;4803488;29;20353;-61
2023/05/10 03:09:39;;;;;;;2.10;1.10;;;;;;;11.30;100.00;93458.09;4803126;29;20417;-61
2023/05/10 03:12:21;;;;;;;2.22;1.25;;;;;;;11.18;100.00;93468.56;4802409;29;20103;-64
2023/05/10 03:15:02;;;;;;;2.40;0.90;;;;;;;11.24;100.00;93468.06;4802608;29;20047;-60
2023/05/10 03:17:37;;;;;;;2.15;0.85;;;;;;;11.28;100.00;93463.25;4787298;29;20050;-60
2023/05/10 03:20:09;;;;;;;1.80;0.80;;;;;;;11.29;100.00;93464.78;4801887;29;21719;-60
2023/05/10 03:22:40;;;;;;;2.25;0.77;;;;;;;11.40;100.00;93468.03;4802551;29;20073;-61
2023/05/10 03:25:10;;;;;;;1.90;0.93;;;;;;;11.37;100.00;93460.69;4802725;29;20057;-60
2023/05/10 03:27:40;;;;;;;2.80;0.90;;;;;;;11.27;100.00;93467.97;4802763;29;20047;-60
2023/05/10 03:30:10;;;;;;;2.50;0.77;;;;;;;11.22;100.00;93467.72;4802557;29;20066;-64
2023/05/10 03:32:37;;;;;;;2.40;0.97;;;;;;;11.29;100.00;93471.06;4802952;29;20047;-60
2023/05/10 03:35:12;;;;;;;3.53;1.00;;;;;;;11.36;100.00;93475.59;4802909;29;20580;-60
2023/05/10 03:37:39;;;;;;;2.45;1.10;;;;;;;11.26;100.00;93479.41;4802303;29;20050;-61
2023/05/10 03:40:06;;;;;;;3.03;1.10;;;;;;;11.26;100.00;93488.41;4786503;29;20167;-64
2023/05/10 03:42:33;;;;;;;3.65;0.90;;;;;;;11.20;100.00;93479.13;4802860;29;20135;-63
2023/05/10 03:44:59;;;;;;;2.97;1.20;;;;;;;11.24;100.00;93473.56;4801563;29;20047;-63
2023/05/10 03:47:26;;;;;;;2.55;1.40;;;;;;;11.25;100.00;93477.84;4802708;29;20051;-61
2023/05/10 03:49:53;;;;;;;3.30;1.02;;;;;;;11.03;100.00;93481.13;4801975;29;20063;-60
2023/05/10 03:52:19;;;;;;;4.18;1.20;;;;;;;11.04;100.00;93479.91;4800414;29;20059;-64
2023/05/10 03:54:46;;;;;;;2.38;1.20;;;;;;;10.94;100.00;93475.44;4802249;29;20713;-63
2023/05/10 03:57:13;;;;;;;2.97;1.10;;;;;;;10.95;100.00;93480.50;4803046;29;20057;-60
2023/05/10 03:59:39;;;;;;;2.88;1.10;;;;;;;10.98;100.00;93478.88;4802317;29;20058;-60
2023/05/10 04:02:06;;;;;;;2.55;1.00;;;;;;;10.98;100.00;93482.38;4786320;29;20049;-60
2023/05/10 04:04:33;;;;;;;2.55;1.08;;;;;;;11.00;100.00;93481.97;4802348;29;20601;-63
2023/05/10 04:06:59;;;;;;;3.92;1.10;;;;;;;11.06;100.00;93484.97;4801528;29;20047;-61
2023/05/10 04:09:26;;;;;;;3.17;1.20;;;;;;;11.03;100.00;93489.34;4802527;29;20065;-62
2023/05/10 04:11:53;;;;;;;4.60;0.90;;;;;;;10.95;100.00;93493.47;4801780;29;20059;-63
2023/05/10 04:14:19;;;;;;;3.72;1.27;;;;;;;11.00;100.00;93493.72;4802566;29;20047;-60
2023/05/10 04:16:46;;;;;;;2.95;1.00;;;;;;;10.98;100.00;93484.38;4802023;29;20156;-60
2023/05/10 04:19:13;;;;;;;1.88;1.00;;;;;;;11.08;100.00;93494.31;4802052;29;20059;-63
2023/05/10 04:21:40;;;;;;;3.13;1.30;;;;;;;11.08;100.00;93494.31;4801740;29;20057;-64
2023/05/10 04:24:06;;;;;;;3.10;1.70;;;;;;;10.97;100.00;93497.34;4785529;29;20050;-60
2023/05/10 04:26:33;;;;;;;2.70;1.35;;;;;;;11.05;100.00;93499.94;4802032;29;20079;-60
2023/05/10 04:29:00;;;;;;;2.83;1.48;;;;;;;11.05;100.00;93497.94;4801138;29;21558;-61
2023/05/10 04:31:27;;;;;;;2.60;1.60;;;;;;;11.10;100.00;93507.63;4785916;29;20168;-63
2023/05/10 04:33:54;;;;;;;3.90;1.40;;;;;;;11.06;100.00;93504.19;4800971;29;20080;-60
2023/05/10 04:36:21;;;;;;;3.88;1.50;;;;;;;11.10;100.00;93504.88;4771111;29;20072;-61
2023/05/10 04:38:48;;;;;;;4.30;1.65;;;;;;;11.17;100.00;93510.22;4800896;29;20051;-64
2023/05/10 04:41:14;;;;;;;3.90;1.40;;;;;;;11.15;100.00;93507.91;4801755;29;20055;-60
2023/05/10 04:43:41;;;;;;;5.07;1.50;;;;;;;11.19;100.00;93514.06;4801055;29;20051;-61
2023/05/10 04:46:07;;;;;;;2.97;1.20;;;;;;;11.31;100.00;93517.34;4801305;29;20057;-60
2023/05/10 04:48:34;;;;;;;3.40;1.50;;;;;;;11.26;100.00;93512.34;4801411;29;20397;-63
2023/05/10 04:51:03;;;;;;;2.67;1.40;;;;;;;11.23;100.00;93516.75;4800514;29;20243;-61
2023/05/10 04:53:30;;;;;;;2.60;1.35;;;;;;;11.27;100.00;93516.63;4799841;29;20043;-61
2023/05/10 04:55:56;;;;;;;3.13;1.40;;;;;;;11.26;100.00;93512.34;4800925;29;20054;-60
2023/05/10 04:58:23;;;;;;;2.87;1.60;;;;;;;11.17;100.00;93518.47;4801435;29;20053;-60
2023/05/10 05:00:50;;;;;;;4.32;2.10;;;;;;;11.08;100.00;93515.53;4800611;29;20590;-62
2023/05/10 05:03:16;;;;;;;3.70;1.50;;;;;;;10.84;100.00;93512.16;4801572;29;20050;-61
2023/05/10 05:05:44;;;;;;;3.55;1.38;;;;;;;10.65;100.00;93514.53;4801035;29;20516;-60
2023/05/10 05:08:11;;;;;;;3.30;1.50;;;;;;;10.74;100.00;93524.91;4800641;29;20246;-63
2023/05/10 05:10:37;;;;;;;10.40;5.27;;;;;;;10.98;100.00;93525.56;4801030;29;20077;-60
2023/05/10 05:13:04;;;;;;;14.32;6.47;;;;;;;11.15;100.00;93516.13;4800848;29;20073;-61
2023/05/10 05:15:31;;;;;;;9.27;4.47;;;;;;;11.18;100.00;93520.75;4801194;29;20038;-60
2023/05/10 05:17:57;;;;;;;10.35;3.60;;;;;;;11.08;100.00;93521.78;4800264;29;20112;-64
2023/05/10 05:20:24;;;;;;;8.30;4.10;;;;;;;11.30;100.00;93516.56;4800951;29;20067;-60
2023/05/10 05:22:51;;;;;;;8.23;3.30;;;;;;;11.36;100.00;93516.81;4800715;29;20405;-60
2023/05/10 05:25:18;;;;;;;7.68;2.88;;;;;;;11.53;100.00;93512.84;4801092;29;20047;-61
2023/05/10 05:27:44;;;;;;;4.50;2.60;;;;;;;11.64;100.00;93517.31;4800577;29;20296;-61
2023/05/10 05:30:12;;;;;;;9.23;5.25;;;;;;;11.67;100.00;93513.69;4800755;29;20055;-61
2023/05/10 05:32:39;;;;;;;5.93;3.80;;;;;;;11.76;100.00;93520.09;4769941;29;20054;-61
2023/05/10 05:35:06;;;;;;;4.40;2.47;;;;;;;11.70;100.00;93521.06;4800175;29;20488;-63
2023/05/10 05:37:32;;;;;;;4.22;1.95;;;;;;;11.73;100.00;93522.94;4800916;29;20412;-61
2023/05/10 05:40:01;;;;;;;4.78;1.95;;;;;;;11.64;100.00;93515.31;4799984;29;20057;-61
2023/05/10 05:42:27;;;;;;;3.05;1.40;;;;;;;11.69;100.00;93530.50;4800756;29;20042;-61
2023/05/10 05:44:54;;;;;;;3.40;1.50;;;;;;;11.43;100.00;93537.84;4799812;29;20454;-64
2023/05/10 05:47:21;;;;;;;3.20;1.50;;;;;;;11.31;100.00;93539.31;4800902;29;20055;-62
2023/05/10 05:49:48;;;;;;;4.88;1.70;;;;;;;11.51;100.00;93550.19;4800805;29;20107;-61
2023/05/10 05:52:14;;;;;;;3.35;1.65;;;;;;;11.37;100.00;93548.59;4800270;29;20062;-60
2023/05/10 05:54:41;;;;;;;5.35;2.10;;;;;;;11.32;100.00;93552.59;4800032;29;20046;-62
2023/05/10 05:57:08;;;;;;;3.70;2.03;;;;;;;11.36;100.00;93550.53;4800052;29;20074;-62
2023/05/10 05:59:35;;;;;;;3.70;2.00;;;;;;;11.13;100.00;93553.47;4799624;29;20131;-62
2023/05/10 06:02:02;;;;;;;4.50;1.80;;;;;;;11.20;100.00;93561.53;4800533;29;20057;-61
2023/05/10 06:04:28;;;;;;;4.47;2.00;;;;;;;11.20;100.00;93562.28;4798289;29;20047;-64
2023/05/10 06:06:55;;;;;;;2.80;1.70;;;;;;;11.44;100.00;93556.66;4799350;29;20107;-62
2023/05/10 06:09:24;;;;;;;3.47;1.35;;;;;;;11.48;100.00;93554.59;4800566;29;20143;-61
2023/05/10 06:11:51;;;;;;;3.10;1.10;;;;;;;11.35;100.00;93551.00;4800505;29;20077;-61
2023/05/10 06:14:20;;;;;;;3.38;1.40;;;;;;;11.26;100.00;93553.56;4784428;29;20199;-63
2023/05/10 06:16:47;;;;;;;3.85;1.20;;;;;;;11.23;100.00;93555.19;4800494;29;20067;-61
2023/05/10 06:19:14;;;;;;;2.20;1.30;;;;;;;11.19;100.00;93554.50;4800300;29;20050;-62
2023/05/10 06:21:40;;;;;;;2.45;1.13;;;;;;;11.30;100.00;93559.75;4800414;29;20050;-61
2023/05/10 06:24:07;;;;;;;3.13;1.50;;;;;;;11.58;100.00;93553.53;4800978;29;20065;-60
2023/05/10 06:26:34;;;;;;;2.00;1.20;;;;;;;11.84;100.00;93547.41;4801318;29;20216;-60
2023/05/10 06:29:01;;;;;;;2.83;1.52;;;;;;;12.13;100.00;93547.44;4799753;29;20876;-61
2023/05/10 06:31:27;;;;;;;2.78;1.50;;;;;;;12.39;100.00;93542.81;4800908;29;20047;-64
2023/05/10 06:33:54;;;;;;;3.63;1.60;;;;;;;12.41;100.00;93553.38;4800383;29;20043;-61
2023/05/10 06:36:24;;;;;;;6.30;3.13;;;;;;;12.52;100.00;93551.88;4800902;29;20053;-61
2023/05/10 06:38:51;;;;;;;3.28;1.60;;;;;;;12.65;100.00;93551.88;4800378;29;20146;-64
2023/05/10 06:41:17;;;;;;;3.65;1.80;;;;;;;12.62;100.00;93546.50;4800683;29;20058;-62
2023/05/10 06:43:44;;;;;;;8.63;3.55;;;;;;;12.93;100.00;93558.53;4800385;29;20055;-60
2023/05/10 06:46:11;;;;;;;4.28;2.08;;;;;;;12.77;100.00;93550.38;4785220;29;20049;-60
2023/05/10 06:48:37;;;;;;;3.00;1.30;;;;;;;12.64;100.00;93549.59;4787441;29;20051;-66
2023/05/10 06:51:04;;;;;;;3.25;1.27;;;;;;;12.65;100.00;93549.13;4803756;29;20043;-62
2023/05/10 06:53:31;;;;;;;3.25;1.10;;;;;;;12.47;100.00;93548.88;4803980;29;20043;-60
2023/05/10 06:55:57;;;;;;;2.10;1.05;;;;;;;12.79;100.00;93545.97;4803029;29;20050;-60
2023/05/10 06:58:24;;;;;;;2.30;1.05;;;;;;;13.16;100.00;93551.94;4804206;29;20051;-60
2023/05/10 07:00:51;;;;;;;2.30;1.10;;;;;;;13.44;100.00;93551.50;4803263;29;20055;-63
2023/05/10 07:03:17;;;;;;;2.88;1.20;;;;;;;13.35;100.00;93555.69;4790355;29;20083;-60
2023/05/10 07:05:44;;;;;;;3.88;1.30;;;;;;;13.61;100.00;93554.91;4802178;29;20054;-61
2023/05/10 07:08:11;;;;;;;2.33;1.00;;;;;;;13.27;100.00;93553.59;4803332;29;20065;-60
2023/05/10 07:10:37;;;;;;;3.03;1.00;;;;;;;13.07;100.00;93564.84;4803167;29;20517;-60
2023/05/10 07:13:04;;;;;;;3.53;1.03;;;;;;;13.27;100.00;93564.63;4803758;29;20417;-61
2023/05/10 07:15:31;;;;;;;2.72;1.00;;;;;;;13.29;100.00;93559.44;4803878;29;20045;-60
2023/05/10 07:17:58;;;;;;;2.40;1.27;;;;;;;13.46;100.00;93562.84;4786903;29;20157;-64
2023/05/10 07:20:25;;;;;;;3.50;1.00;;;;;;;13.63;100.00;93553.25;4803384;29;20458;-60
2023/05/10 07:22:51;;;;;;;2.13;1.08;;;;;;;14.18;100.00;93556.53;4803391;29;20061;-61
2023/05/10 07:25:18;;;;;;;2.87;1.10;;;;;;;13.90;100.00;93549.97;4803176;29;20070;-60
2023/05/10 07:27:45;;;;;;;2.10;1.08;;;;;;;14.18;100.00;93551.00;4803020;29;20118;-61
2023/05/10 07:30:12;;;;;;;3.20;1.08;;;;;;;14.17;100.00;93554.97;4803630;29;20424;-61
2023/05/10 07:32:41;;;;;;;3.65;1.10;;;;;;;14.49;100.00;93555.06;4803079;29;20055;-64
2023/05/10 07:35:08;;;;;;;2.00;1.00;;;;;;;14.02;100.00;93555.91;4803300;29;20155;-62
2023/05/10 07:37:35;;;;;;;2.47;1.00;;;;;;;14.42;100.00;93552.53;4772272;29;20073;-60
2023/05/10 07:40:02;;;;;;;2.53;1.15;;;;;;;14.74;100.00;93556.94;4787258;29;20377;-60
2023/05/10 07:42:29;;;;;;;2.58;1.20;;;;;;;14.75;100.00;93564.75;4803149;29;20057;-60
2023/05/10 07:44:56;;;;;;;6.28;1.30;;;;;;;14.04;100.00;93559.75;4802781;29;20574;-63
2023/05/10 07:47:23;;;;;;;3.33;1.08;;;;;;;14.25;100.00;93554.72;4803082;29;20058;-61
2023/05/10 07:49:50;;;;;;;2.83;1.13;;;;;;;13.53;100.00;93562.63;4790837;29;20051;-62
2023/05/10 07:52:16;;;;;;;2.20;1.00;;;;;;;13.47;100.00;93561.66;4802680;29;20469;-61
2023/05/10 07:54:44;;;;;;;2.88;0.90;;;;;;;13.52;100.00;93556.38;4802686;29;20409;-60
2023/05/10 07:57:11;;;;;;;5.60;1.10;;;;;;;13.69;100.00;93567.25;4785843;29;20495;-61
2023/05/10 07:59:37;;;;;;;4.18;1.10;;;;;;;14.13;100.00;93561.84;4802348;29;20417;-61
2023/05/10 08:02:04;;;;;;;4.13;1.80;;;;;;;14.36;100.00;93569.66;4802572;29;20061;-60
2023/05/10 08:04:31;;;;;;;3.58;1.60;;;;;;;14.35;100.00;93562.63;4802818;29;20055;-63
2023/05/10 08:06:58;;;;;;;4.00;1.20;;;;;;;14.71;100.00;93561.38;4802394;29;20051;-64
2023/05/10 08:09:25;;;;;;;2.70;1.00;;;;;;;15.02;100.00;93562.59;4802611;29;20057;-61
2023/05/10 08:11:52;;;;;;;2.30;1.15;;;;;;;14.96;100.00;93565.94;4802085;29;20046;-62
2023/05/10 08:14:18;;;;;;;2.60;1.27;;;;;;;15.17;100.00;93564.38;4802708;29;20051;-61
2023/05/10 08:16:45;;;;;;;3.95;1.23;;;;;;;15.01;100.00;93567.38;4802496;29;20135;-63
2023/05/10 08:19:12;;;;;;;3.75;1.90;;;;;;;14.86;100.00;93580.16;4786084;29;20054;-61
2023/05/10 08:21:40;;;;;;;4.05;1.70;;;;;;;14.62;100.00;93574.34;4802321;29;20047;-61
2023/05/10 08:24:07;;;;;;;3.22;1.00;;;;;;;14.53;100.00;93570.28;4802466;29;20075;-61
2023/05/10 08:26:33;;;;;;;3.27;1.10;;;;;;;14.01;100.00;93579.97;4802602;29;20049;-61
2023/05/10 08:29:00;;;;;;;3.30;1.00;;;;;;;12.08;100.00;93581.00;4801429;29;21643;-61
2023/05/10 08:31:27;;;;;;;2.33;1.20;;;;;;;11.25;100.00;93594.00;4802412;29;20178;-63
2023/05/10 08:33:53;;;;;;;3.72;1.50;;;;;;;11.77;100.00;93595.09;4802143;29;20055;-61
2023/05/10 08:36:21;;;;;;;3.25;1.80;;;;;;;11.88;100.00;93598.34;4802380;29;20043;-60
2023/05/10 08:38:52;;;;;;;3.70;1.60;;;;;;;11.89;100.00;93597.19;4801871;29;20067;-60
2023/05/10 08:41:24;;;;;;;4.30;1.42;;;;;;;11.99;100.00;93598.91;4802043;29;20063;-61
2023/05/10 08:43:52;;;;;;;2.63;1.20;;;;;;;12.59;100.00;93595.69;4802254;29;20103;-61
2023/05/10 08:46:20;;;;;;;2.65;1.30;;;;;;;12.45;100.00;93604.34;4802078;29;20047;-64
2023/05/10 08:48:49;;;;;;;3.35;1.40;;;;;;;12.36;100.00;93599.50;4789761;29;20046;-61
2023/05/10 08:51:19;;;;;;;2.27;1.10;;;;;;;12.51;100.00;93599.84;4786007;29;20106;-66
2023/05/10 08:53:45;;;;;;;2.30;1.10;;;;;;;12.75;100.00;93597.59;4790179;29;20205;-62
2023/05/10 08:56:13;;;;;;;2.63;0.90;;;;;;;12.78;100.00;93602.25;4801930;29;20050;-60
2023/05/10 08:58:39;;;;;;;4.03;1.25;;;;;;;12.63;100.00;93603.09;4801663;29;20061;-61
2023/05/10 09:01:07;;;;;;;2.00;0.80;;;;;;;12.61;100.00;93600.78;4800560;29;20047;-61
2023/05/10 09:03:34;;;;;;;2.23;0.90;;;;;;;12.81;100.00;93595.09;4801946;29;20111;-61
2023/05/10 09:06:01;;;;;;;2.40;0.80;;;;;;;12.93;100.00;93599.09;4801502;29;20054;-61
2023/05/10 09:08:28;;;;;;;1.92;0.80;;;;;;;13.39;100.00;93605.97;4801407;29;20061;-61
2023/05/10 09:10:55;;;;;;;3.28;0.90;;;;;;;13.18;100.00;93595.59;4800756;29;20093;-64
2023/05/10 09:13:23;;;;;;;2.70;0.90;;;;;;;12.66;100.00;93600.25;4801894;29;20050;-63
2023/05/10 09:15:51;;;;;;;2.10;0.90;;;;;;;12.87;100.00;93592.56;4801659;29;20047;-61
2023/05/10 09:18:18;;;;;;;4.10;0.80;;;;;;;13.34;100.00;93597.47;4800925;29;20043;-62
2023/05/10 09:20:45;;;;;;;2.10;0.70;;;;;;;13.44;100.00;93603.88;4801102;29;20062;-63
2023/05/10 09:23:12;;;;;;;2.38;0.80;;;;;;;13.05;100.00;93603.84;4800961;29;20047;-60
2023/05/10 09:25:41;;;;;;;2.83;1.10;;;;;;;12.75;100.00;93603.13;4801003;29;20515;-61
2023/05/10 09:28:09;;;;;;;2.67;1.20;;;;;;;13.16;100.00;93604.28;4785449;29;20055;-61
2023/05/10 09:30:36;;;;;;;3.60;1.10;;;;;;;13.73;100.00;93603.75;4801112;29;20111;-61
2023/05/10 09:33:03;;;;;;;2.30;1.08;;;;;;;13.57;100.00;93597.16;4801341;29;20457;-62
2023/05/10 09:35:32;;;;;;;2.63;0.80;;;;;;;13.90;100.00;93605.13;4801230;29;20054;-61
2023/05/10 09:38:04;;;;;;;3.63;1.10;;;;;;;14.76;100.00;93601.44;4801266;29;20055;-64
2023/05/10 09:40:31;;;;;;;2.20;0.80;;;;;;;15.16;100.00;93603.53;4801611;29;20047;-61
2023/05/10 09:43:03;;;;;;;3.00;1.05;;;;;;;15.12;100.00;93602.88;4800609;29;20106;-62
2023/05/10 09:45:33;;;;;;;3.17;1.10;;;;;;;15.02;100.00;93599.31;4785106;29;20046;-65
2023/05/10 09:48:03;;;;;;;2.20;0.90;;;;;;;16.16;100.00;93593.28;4800586;29;21145;-61
2023/05/10 09:50:30;;;;;;;1.92;0.88;;;;;;;16.54;100.00;93592.81;4800957;29;20059;-62
2023/05/10 09:53:00;;;;;;;4.13;1.07;;;;;;;15.80;100.00;93594.75;4801178;29;20126;-66
2023/05/10 09:55:35;;;;;;;3.03;1.20;;;;;;;15.98;100.00;93596.78;4801265;29;20124;-62
2023/05/10 09:58:04;;;;;;;4.65;1.70;;;;;;;16.45;100.00;93605.91;4788970;29;20755;-62
2023/05/10 10:00:38;;;;;;;4.10;1.40;;;;;;;15.88;100.00;93600.75;4799163;29;20118;-62
2023/05/10 10:03:06;;;;;;;4.40;1.00;;;;;;;16.62;100.00;93600.81;4800392;29;20822;-62
2023/05/10 10:05:34;;;;;;;3.60;1.00;;;;;;;16.97;97.65;93590.19;4801200;29;20057;-64
2023/05/10 10:08:05;;;;;;;2.70;0.93;;;;;;;16.15;100.00;93609.09;4800535;29;20901;-62
2023/05/10 10:10:33;;;;;;;2.45;0.82;;;;;;;16.55;100.00;93608.19;4785131;29;20103;-61
2023/05/10 10:13:01;;;;;;;3.08;1.10;;;;;;;17.10;97.63;93590.00;4800350;29;20050;-61
2023/05/10 10:15:28;;;;;;;2.40;1.10;;;;;;;17.13;95.41;93597.41;4801267;29;20050;-61
2023/05/10 10:17:55;;;;;;;1.97;1.00;;;;;;;17.49;93.16;93590.19;4784375;29;20160;-62
2023/05/10 10:20:22;;;;;;;3.33;1.13;;;;;;;16.42;94.37;93598.50;4800464;29;20111;-62
2023/05/10 10:22:49;;;;;;;1.98;1.15;;;;;;;16.43;94.43;93602.81;4804139;29;20055;-61
2023/05/10 10:25:18;;;;;;;2.30;1.10;;;;;;;17.16;92.63;93597.25;4804271;29;20378;-62
2023/05/10 10:27:51;;;;;;;3.25;1.00;;;;;;;18.68;81.64;93593.50;4787778;29;20059;-62
2023/05/10 10:30:29;;;;;;;3.07;0.90;;;;;;;18.81;77.44;93590.47;4803997;29;20572;-62
2023/05/10 10:33:18;;;;;;;4.03;1.00;;;;;;;19.46;75.03;93585.81;4804102;29;20058;-62
2023/05/10 10:35:57;;;;;;;2.83;1.20;;;;;;;19.58;73.34;93597.09;4792661;29;20103;-62
2023/05/10 10:38:24;;;;;;;2.88;0.90;;;;;;;19.28;71.53;93586.00;4804334;29;20050;-62
2023/05/10 10:41:28;;;;;;;2.97;0.98;;;;;;;18.91;68.83;93589.94;4803915;29;20065;-67
2023/05/10 10:44:26;;;;;;;2.23;0.90;;;;;;;18.81;68.50;93596.81;4774984;29;20049;-62
2023/05/10 10:47:11;;;;;;;2.55;0.80;;;;;;;19.55;60.76;93599.59;4787737;29;20055;-62
2023/05/10 10:49:41;;;;;;;2.88;0.88;;;;;;;19.22;62.20;93599.81;4803662;29;20062;-62
2023/05/10 10:52:17;;;;;;;2.83;0.80;;;;;;;18.98;58.51;93597.13;4804346;29;20065;-62
2023/05/10 10:54:58;;;;;;;3.53;1.00;;;;;;;19.62;58.27;93589.31;4803676;29;20107;-62
2023/05/10 10:57:26;;;;;;;3.13;1.03;;;;;;;19.85;56.72;93594.00;4803882;29;20077;-62
2023/05/10 11:00:19;;;;;;;2.75;0.90;;;;;;;20.41;55.19;93596.03;4802533;29;20061;-62
2023/05/10 11:02:51;;;;;;;2.40;0.95;;;;;;;20.44;55.91;93595.81;4798930;29;20106;-64
2023/05/10 11:05:34;;;;;;;2.47;1.00;;;;;;;20.25;55.87;93584.19;4803902;29;20054;-62
2023/05/10 11:08:10;;;;;;;3.20;1.27;;;;;;;19.51;60.51;93587.91;4803115;29;21670;-63
2023/05/10 11:10:38;;;;;;;2.43;1.10;;;;;;;19.40;58.47;93593.28;4803405;29;20045;-63
2023/05/10 11:13:06;;;;;;;3.60;1.40;;;;;;;17.93;62.31;93609.16;4803846;29;20055;-63
2023/05/10 11:15:39;;;;;;;3.97;1.02;;;;;;;16.67;74.59;93612.06;4803771;29;20055;-62
2023/05/10 11:18:21;;;;;;;3.00;1.05;;;;;;;16.03;85.55;93618.31;4802811;29;20579;-61
2023/05/10 11:21:09;;;;;;;3.40;1.05;;;;;;;15.62;89.96;93631.38;4802688;29;20169;-64
2023/05/10 11:23:56;;;;;;;4.47;1.10;;;;;;;15.15;93.28;93629.59;4803042;29;20058;-64
2023/05/10 11:26:25;;;;;;;5.97;1.27;;;;;;;14.61;97.32;93642.63;4803299;29;20433;-63
2023/05/10 11:28:55;;;;;;;3.42;1.30;;;;;;;14.42;97.85;93649.94;4802757;29;20115;-61
2023/05/10 11:31:22;;;;;;;3.28;1.45;;;;;;;14.35;99.30;93648.19;4803472;29;20111;-64
2023/05/10 11:33:52;;;;;;;6.22;1.45;;;;;;;14.36;98.42;93646.97;4802071;29;20058;-61
2023/05/10 11:36:25;;;;;;;6.33;2.30;;;;;;;14.19;100.00;93651.88;4802669;29;20077;-62